Time;durP1;ratioP1;P1;durP2;ratioP2;P2;SDS_P1;SDS_P2;PMS_P1;PMS_P2;Temp;Humidity;BMP_temperature;BMP_pressure;BME280_temperature;BME280_humidity;BME280_pressure;Samples;Min_cycle;Max_cycle;Signal;HPM_P1;HPM_P2
2022/11/17 00:01:41;;;;;;;5.07;1.30;;;17.10;80.90;;;;;;5051598;28;20029;-75
2022/11/17 00:04:06;;;;;;;8.52;1.17;;;17.10;81.00;;;;;;5051452;28;20021;-75
2022/11/17 00:06:32;;;;;;;4.20;1.10;;;17.10;81.10;;;;;;5051599;28;20368;-75
2022/11/17 00:08:57;;;;;;;4.45;1.13;;;17.00;81.00;;;;;;5052587;28;20406;-75
2022/11/17 00:11:23;;;;;;;2.60;0.88;;;17.00;81.00;;;;;;5052383;28;20510;-75
2022/11/17 00:16:33;;;;;;;9.35;1.25;;;17.00;81.10;;;;;;5052628;28;20036;-75
2022/11/17 00:21:42;;;;;;;5.60;0.95;;;17.00;81.20;;;;;;5052419;28;20483;-75
2022/11/17 00:24:08;;;;;;;3.72;1.25;;;17.10;81.20;;;;;;5051055;28;20052;-75
2022/11/17 00:26:34;;;;;;;6.20;1.30;;;17.00;81.20;;;;;;5051368;28;20052;-75
2022/11/17 00:29:03;;;;;;;8.75;1.40;;;17.00;81.20;;;;;;5052034;28;20033;-74
2022/11/17 00:34:22;;;;;;;3.88;1.13;;;17.00;81.20;;;;;;5037048;28;20136;-75
2022/11/17 00:36:52;;;;;;;5.03;1.40;;;17.00;81.30;;;;;;5049926;28;20582;-75
2022/11/17 00:39:19;;;;;;;5.18;1.63;;;17.00;81.40;;;;;;5049895;28;20519;-75
2022/11/17 00:41:44;;;;;;;3.50;1.10;;;17.10;81.40;;;;;;5033322;28;20029;-75
2022/11/17 00:44:10;;;;;;;5.18;1.52;;;17.00;81.40;;;;;;5049965;28;20029;-75
2022/11/17 00:46:36;;;;;;;3.13;1.00;;;17.00;81.30;;;;;;5033465;28;20025;-75
2022/11/17 00:49:02;;;;;;;2.45;1.15;;;17.00;81.30;;;;;;5050191;28;20041;-75
2022/11/17 00:51:28;;;;;;;3.17;0.93;;;17.00;81.40;;;;;;5049725;28;20033;-75
2022/11/17 00:53:53;;;;;;;3.75;1.10;;;17.00;81.40;;;;;;5034742;28;20384;-75
2022/11/17 00:56:19;;;;;;;3.83;0.93;;;17.00;81.40;;;;;;5053629;28;20079;-75
2022/11/17 00:58:45;;;;;;;4.75;1.23;;;17.00;81.40;;;;;;5035871;28;20080;-75
2022/11/17 01:01:10;;;;;;;3.00;0.95;;;17.00;81.50;;;;;;5034031;28;20022;-75
2022/11/17 01:03:36;;;;;;;8.75;0.82;;;17.00;81.50;;;;;;5017193;28;20036;-74
2022/11/17 01:06:04;;;;;;;7.95;1.65;;;17.00;81.40;;;;;;5033958;28;20064;-74
2022/11/17 01:08:30;;;;;;;5.00;1.10;;;17.00;81.40;;;;;;5017203;28;20037;-74
2022/11/17 01:10:55;;;;;;;3.65;1.13;;;17.00;81.40;;;;;;5034144;28;20446;-74
2022/11/17 01:13:21;;;;;;;3.80;0.85;;;17.00;81.30;;;;;;5034744;28;20034;-74
2022/11/17 01:15:46;;;;;;;4.20;1.25;;;17.00;81.30;;;;;;5035963;28;20021;-75
2022/11/17 01:18:12;;;;;;;4.43;0.90;;;17.00;81.40;;;;;;5034602;28;20074;-75
2022/11/17 01:20:38;;;;;;;2.70;0.77;;;17.00;81.30;;;;;;5035778;28;20025;-74
2022/11/17 01:23:03;;;;;;;5.10;0.95;;;17.00;81.30;;;;;;5018043;28;20021;-74
2022/11/17 01:25:30;;;;;;;3.22;0.80;;;17.00;81.40;;;;;;5035275;28;20063;-74
2022/11/17 01:27:55;;;;;;;3.47;0.80;;;17.00;81.40;;;;;;5017967;28;20129;-74
2022/11/17 01:30:21;;;;;;;4.00;1.23;;;17.00;81.60;;;;;;5035517;28;20487;-74
2022/11/17 01:32:47;;;;;;;4.55;0.85;;;17.00;81.70;;;;;;5034430;28;20053;-74
2022/11/17 01:35:12;;;;;;;3.90;0.85;;;17.00;81.70;;;;;;5035540;28;20033;-74
2022/11/17 01:37:38;;;;;;;1.70;0.90;;;17.00;81.70;;;;;;5035376;28;20030;-75
2022/11/17 01:40:04;;;;;;;3.85;1.63;;;17.00;81.80;;;;;;5034107;28;20018;-75
2022/11/17 01:42:30;;;;;;;4.78;1.00;;;17.00;81.70;;;;;;5034007;28;20032;-75
2022/11/17 01:45:00;;;;;;;5.28;0.90;;;17.00;81.80;;;;;;5034069;28;20021;-75
2022/11/17 01:47:32;;;;;;;4.18;0.80;;;17.00;81.90;;;;;;5033979;28;20028;-75
2022/11/17 01:50:02;;;;;;;3.77;0.70;;;17.00;81.90;;;;;;5035278;28;20022;-75
2022/11/17 01:52:28;;;;;;;4.65;1.00;;;17.00;81.90;;;;;;5033753;28;20052;-75
2022/11/17 01:54:53;;;;;;;2.38;0.88;;;17.00;81.90;;;;;;5033707;28;20025;-75
2022/11/17 01:57:26;;;;;;;3.95;1.00;;;17.00;82.00;;;;;;5033693;28;20064;-75
2022/11/17 01:59:55;;;;;;;3.47;1.00;;;17.00;81.90;;;;;;5043703;28;20071;-75
2022/11/17 02:02:21;;;;;;;6.07;1.15;;;17.00;81.90;;;;;;5037347;28;20025;-75
2022/11/17 02:04:53;;;;;;;2.97;0.98;;;17.00;81.90;;;;;;5053691;28;20021;-74
2022/11/17 02:07:36;;;;;;;1.83;0.73;;;17.00;81.90;;;;;;5053687;28;20024;-74
2022/11/17 02:10:02;;;;;;;3.03;0.82;;;17.00;82.00;;;;;;5038608;28;20256;-75
2022/11/17 02:12:29;;;;;;;3.30;1.02;;;17.00;82.10;;;;;;5036900;28;20029;-75
2022/11/17 02:14:55;;;;;;;3.22;0.80;;;17.00;82.00;;;;;;5020421;28;20403;-75
2022/11/17 02:17:21;;;;;;;2.65;0.90;;;17.00;82.00;;;;;;5036887;28;20025;-75
2022/11/17 02:19:55;;;;;;;3.92;0.88;;;17.00;82.00;;;;;;5036969;28;20096;-75
2022/11/17 02:22:33;;;;;;;3.28;0.93;;;17.00;82.00;;;;;;5021115;28;20024;-75
2022/11/17 02:25:14;;;;;;;3.47;0.77;;;17.00;82.00;;;;;;5052836;28;20017;-75
2022/11/17 02:28:05;;;;;;;4.50;0.93;;;17.00;81.90;;;;;;5021681;28;20032;-75
2022/11/17 02:30:59;;;;;;;2.88;0.63;;;17.00;81.90;;;;;;5022902;28;20121;-75
2022/11/17 02:33:32;;;;;;;2.50;0.75;;;17.00;82.00;;;;;;5058626;28;20534;-75
2022/11/17 02:36:07;;;;;;;7.60;0.95;;;17.00;82.10;;;;;;5055865;28;20061;-75
2022/11/17 02:38:41;;;;;;;3.33;0.68;;;17.00;82.00;;;;;;5022642;28;20032;-75
2022/11/17 02:41:12;;;;;;;2.22;0.80;;;17.00;82.00;;;;;;5055654;28;20025;-75
2022/11/17 02:44:04;;;;;;;2.83;0.88;;;17.00;82.00;;;;;;5022525;28;20115;-75
2022/11/17 02:46:52;;;;;;;1.58;0.47;;;17.00;82.00;;;;;;5042183;28;20055;-75
2022/11/17 02:49:21;;;;;;;5.95;1.27;;;16.90;82.00;;;;;;5046008;28;20032;-75
2022/11/17 02:51:51;;;;;;;2.15;0.68;;;17.00;82.00;;;;;;5035891;28;20116;-75
2022/11/17 02:54:17;;;;;;;2.13;0.75;;;17.00;82.00;;;;;;5018324;28;20036;-75
2022/11/17 02:56:43;;;;;;;4.05;1.00;;;17.00;82.10;;;;;;5035152;28;20033;-75
2022/11/17 02:59:09;;;;;;;1.77;0.70;;;16.90;82.10;;;;;;5034816;28;20051;-75
2022/11/17 03:01:59;;;;;;;2.63;0.80;;;17.00;82.10;;;;;;5018343;28;20044;-74
2022/11/17 03:04:49;;;;;;;2.22;0.70;;;17.00;82.10;;;;;;5034843;28;20037;-75
2022/11/17 03:07:21;;;;;;;0.75;0.40;;;17.00;82.10;;;;;;5051641;28;20040;-74
2022/11/17 03:10:11;;;;;;;4.28;0.70;;;16.90;82.00;;;;;;5032018;28;20518;-74
2022/11/17 03:12:56;;;;;;;4.00;0.82;;;17.00;82.10;;;;;;5015963;28;20022;-74
2022/11/17 03:15:42;;;;;;;2.25;0.75;;;17.00;82.10;;;;;;5036131;28;20072;-74
2022/11/17 03:18:24;;;;;;;3.13;0.80;;;17.00;82.20;;;;;;5016701;28;20419;-75
2022/11/17 03:21:02;;;;;;;4.47;0.77;;;17.00;82.20;;;;;;5032511;28;20415;-75
2022/11/17 03:23:37;;;;;;;2.85;0.98;;;17.00;82.20;;;;;;5032252;28;20452;-75
2022/11/17 03:26:04;;;;;;;1.23;0.60;;;17.00;82.30;;;;;;5032160;28;20031;-74
2022/11/17 03:28:29;;;;;;;1.38;0.80;;;17.00;82.30;;;;;;5016238;28;20431;-75
2022/11/17 03:30:55;;;;;;;3.05;0.70;;;17.00;82.30;;;;;;5015770;28;20025;-75
2022/11/17 03:33:22;;;;;;;3.53;0.52;;;17.00;82.30;;;;;;5033442;28;20459;-74
2022/11/17 03:36:02;;;;;;;2.65;0.57;;;16.90;82.30;;;;;;5015591;28;20092;-74
2022/11/17 03:38:30;;;;;;;4.25;0.73;;;16.90;82.30;;;;;;5015928;28;20018;-74
2022/11/17 03:40:57;;;;;;;4.40;0.90;;;16.90;82.30;;;;;;5015754;28;20022;-74
2022/11/17 03:43:22;;;;;;;4.45;1.63;;;16.90;82.30;;;;;;5015670;28;20025;-74
2022/11/17 03:45:49;;;;;;;4.15;0.93;;;16.90;82.40;;;;;;4999135;28;20032;-75
2022/11/17 03:48:26;;;;;;;2.75;0.73;;;16.90;82.40;;;;;;5015275;28;20037;-75
2022/11/17 03:51:14;;;;;;;6.40;1.02;;;16.90;82.40;;;;;;5031771;28;20025;-75
2022/11/17 03:53:39;;;;;;;2.35;0.60;;;16.90;82.40;;;;;;5017733;28;20030;-75
2022/11/17 03:56:35;;;;;;;3.58;0.68;;;16.90;82.50;;;;;;5031699;28;20427;-75
2022/11/17 03:59:10;;;;;;;4.53;0.75;;;16.90;82.40;;;;;;5035671;28;20048;-75
2022/11/17 04:01:36;;;;;;;3.63;0.77;;;16.90;82.50;;;;;;5051376;28;20537;-74
2022/11/17 04:04:01;;;;;;;1.52;0.68;;;16.90;82.50;;;;;;5051546;28;20029;-75
2022/11/17 04:06:27;;;;;;;1.60;0.65;;;16.90;82.50;;;;;;5051317;28;20029;-75
2022/11/17 04:08:53;;;;;;;4.43;0.52;;;16.90;82.60;;;;;;5052497;28;20463;-74
2022/11/17 04:16:47;;;;;;;1.63;0.50;;;16.90;82.50;;;;;;5037441;28;20055;-75
2022/11/17 04:19:13;;;;;;;1.50;0.52;;;16.90;82.60;;;;;;5034576;28;20049;-74
2022/11/17 04:21:38;;;;;;;2.22;0.68;;;16.90;83.60;;;;;;5052230;28;20033;-74
2022/11/17 04:24:04;;;;;;;2.38;0.60;;;16.90;82.60;;;;;;5052432;28;20083;-74
2022/11/17 04:29:14;;;;;;;3.45;1.13;;;16.90;82.70;;;;;;5051562;28;20123;-74
2022/11/17 04:31:39;;;;;;;2.25;0.90;;;16.90;82.70;;;;;;5034396;28;20111;-75
2022/11/17 04:34:05;;;;;;;2.80;0.70;;;16.90;82.70;;;;;;5052209;28;20079;-74
2022/11/17 04:36:42;;;;;;;1.92;0.90;;;16.90;82.70;;;;;;5051027;28;20025;-74
2022/11/17 04:39:07;;;;;;;1.77;0.52;;;16.90;82.70;;;;;;5052349;28;20020;-74
2022/11/17 04:44:17;;;;;;;3.75;0.82;;;16.90;82.70;;;;;;5051207;28;20116;-74
2022/11/17 04:46:44;;;;;;;1.30;0.70;;;16.90;82.70;;;;;;5052197;28;20104;-74
2022/11/17 04:49:10;;;;;;;2.65;0.90;;;16.90;82.80;;;;;;5034408;28;20472;-74
2022/11/17 04:51:36;;;;;;;1.33;0.50;;;16.90;82.70;;;;;;5033002;28;20047;-74
2022/11/17 04:54:02;;;;;;;1.95;0.50;;;16.90;82.80;;;;;;5031035;28;20480;-74
2022/11/17 04:56:28;;;;;;;1.73;0.50;;;16.90;82.80;;;;;;5030899;28;20030;-74
2022/11/17 04:58:53;;;;;;;1.83;0.50;;;16.90;82.80;;;;;;5032782;28;20049;-74
2022/11/17 05:01:19;;;;;;;2.05;0.60;;;16.90;82.80;;;;;;5052022;28;20100;-74
2022/11/17 05:03:46;;;;;;;2.65;0.90;;;16.90;82.90;;;;;;5050484;28;20481;-74
2022/11/17 05:06:14;;;;;;;2.92;0.70;;;16.90;83.90;;;;;;5050810;28;20017;-74
2022/11/17 05:08:40;;;;;;;1.80;0.68;;;16.90;82.80;;;;;;5034359;28;20029;-74
2022/11/17 05:13:50;;;;;;;1.27;0.50;;;16.90;82.80;;;;;;5050972;28;20083;-74
2022/11/17 05:19:01;;;;;;;1.73;0.70;;;16.90;82.90;;;;;;5036951;28;20060;-74
2022/11/17 05:21:27;;;;;;;1.67;0.55;;;16.90;82.90;;;;;;5050767;28;20052;-74
2022/11/17 05:23:52;;;;;;;1.98;0.60;;;16.90;82.90;;;;;;5050599;28;20049;-74
2022/11/17 05:26:19;;;;;;;1.85;0.47;;;16.90;82.80;;;;;;5051873;28;20079;-74
2022/11/17 05:28:44;;;;;;;2.90;0.70;;;16.90;82.90;;;;;;5033975;28;20490;-74
2022/11/17 05:31:10;;;;;;;1.92;0.77;;;16.90;84.00;;;;;;5050748;28;20029;-74
2022/11/17 05:33:36;;;;;;;2.17;0.82;;;16.90;82.90;;;;;;5050360;28;20055;-74
2022/11/17 05:36:02;;;;;;;1.65;0.40;;;16.90;83.00;;;;;;5033855;28;20061;-74
2022/11/17 05:38:27;;;;;;;1.88;0.50;;;16.90;83.00;;;;;;5050438;28;20088;-74
2022/11/17 05:40:53;;;;;;;2.10;0.65;;;16.90;82.90;;;;;;5054312;28;20025;-74
2022/11/17 05:43:18;;;;;;;3.10;0.77;;;16.90;82.90;;;;;;5055353;28;20029;-74
2022/11/17 05:45:44;;;;;;;0.70;0.40;;;16.90;83.00;;;;;;5053833;28;20024;-74
2022/11/17 05:48:10;;;;;;;4.55;0.73;;;16.90;83.00;;;;;;5037255;28;20025;-74
2022/11/17 05:50:36;;;;;;;5.18;0.60;;;16.90;83.00;;;;;;5055217;28;20027;-74
2022/11/17 05:53:01;;;;;;;4.57;0.50;;;16.90;83.00;;;;;;5040814;28;20036;-75
2022/11/17 05:55:27;;;;;;;1.77;0.70;;;16.90;83.10;;;;;;5035009;28;20061;-75
2022/11/17 05:57:53;;;;;;;1.17;0.52;;;16.90;83.10;;;;;;5017191;28;20076;-75
2022/11/17 06:00:18;;;;;;;3.95;0.88;;;16.90;83.10;;;;;;5047401;28;20017;-74
2022/11/17 06:02:50;;;;;;;6.50;0.75;;;16.90;83.10;;;;;;5053549;28;20017;-74
2022/11/17 06:05:16;;;;;;;1.95;0.70;;;16.90;83.10;;;;;;5053853;28;20017;-74
2022/11/17 06:07:41;;;;;;;3.22;0.57;;;16.90;83.10;;;;;;5036907;28;20102;-74
2022/11/17 06:10:07;;;;;;;2.05;0.80;;;16.90;83.20;;;;;;5036986;28;20028;-74
2022/11/17 06:12:33;;;;;;;2.35;0.77;;;16.90;83.20;;;;;;5054811;28;20021;-74
2022/11/17 06:14:58;;;;;;;3.08;0.45;;;16.90;83.20;;;;;;5054510;28;20526;-74
2022/11/17 06:17:26;;;;;;;3.83;0.40;;;16.90;83.20;;;;;;5054599;28;20483;-74
2022/11/17 06:20:19;;;;;;;2.17;0.55;;;16.90;83.20;;;;;;5053518;28;20025;-74
2022/11/17 06:22:45;;;;;;;2.92;0.60;;;16.90;83.20;;;;;;5050964;28;20483;-74
2022/11/17 06:25:10;;;;;;;4.68;0.60;;;16.90;83.20;;;;;;5036966;28;20026;-74
2022/11/17 06:27:36;;;;;;;3.08;0.95;;;16.90;83.20;;;;;;5053379;28;20039;-75
2022/11/17 06:30:03;;;;;;;2.55;0.50;;;16.90;83.20;;;;;;5052796;28;20032;-75
2022/11/17 06:32:28;;;;;;;3.33;0.47;;;16.90;83.20;;;;;;5054599;28;20028;-75
2022/11/17 06:34:54;;;;;;;4.82;1.05;;;16.90;83.20;;;;;;5053197;28;20017;-74
2022/11/17 06:37:19;;;;;;;3.30;0.68;;;16.90;83.20;;;;;;5053389;28;20033;-75
2022/11/17 06:39:45;;;;;;;2.35;0.60;;;16.90;83.20;;;;;;5053957;28;20398;-75
2022/11/17 06:42:11;;;;;;;2.25;0.60;;;16.90;83.20;;;;;;5036273;28;20423;-75
2022/11/17 06:44:36;;;;;;;1.73;0.55;;;16.90;83.20;;;;;;5052881;28;20032;-75
2022/11/17 06:47:02;;;;;;;4.22;0.93;;;16.90;83.20;;;;;;5052815;28;20028;-74
2022/11/17 06:49:28;;;;;;;1.27;0.47;;;16.90;84.20;;;;;;5036325;28;20025;-74
2022/11/17 06:51:54;;;;;;;3.78;0.77;;;16.90;83.10;;;;;;5049424;28;20043;-74
2022/11/17 06:54:19;;;;;;;2.53;0.65;;;16.80;83.10;;;;;;5032849;28;20061;-74
2022/11/17 06:56:45;;;;;;;2.38;0.57;;;16.90;83.20;;;;;;5032797;28;20057;-74
2022/11/17 06:59:11;;;;;;;3.55;0.70;;;16.80;83.20;;;;;;5037877;28;20041;-74
2022/11/17 07:01:36;;;;;;;2.20;0.80;;;16.90;83.30;;;;;;5052505;28;20021;-74
2022/11/17 07:04:02;;;;;;;3.03;0.73;;;16.90;83.20;;;;;;5052393;28;20489;-74
2022/11/17 07:06:28;;;;;;;1.88;0.65;;;16.80;83.20;;;;;;5052781;28;20029;-74
2022/11/17 07:08:54;;;;;;;2.28;0.80;;;16.80;83.20;;;;;;5052481;28;20406;-74
2022/11/17 07:11:19;;;;;;;6.70;0.80;;;16.90;83.20;;;;;;5052423;28;20022;-74
2022/11/17 07:13:45;;;;;;;1.60;0.70;;;16.90;83.20;;;;;;5052296;28;20029;-74
2022/11/17 07:16:12;;;;;;;1.52;0.60;;;16.90;83.30;;;;;;5052340;28;20032;-74
2022/11/17 07:18:42;;;;;;;3.50;0.75;;;16.90;83.30;;;;;;5053638;28;20423;-74
2022/11/17 07:21:12;;;;;;;5.45;0.70;;;16.90;83.30;;;;;;5019897;28;20067;-74
2022/11/17 07:23:38;;;;;;;5.05;0.50;;;16.90;83.20;;;;;;5036235;28;20095;-75
2022/11/17 07:26:04;;;;;;;0.50;0.32;;;16.90;83.10;;;;;;5035642;28;20372;-74
2022/11/17 07:28:30;;;;;;;5.65;0.85;;;16.90;83.10;;;;;;5053336;28;20033;-74
2022/11/17 07:30:59;;;;;;;4.03;0.73;;;16.90;83.10;;;;;;5051978;28;20503;-74
2022/11/17 07:33:26;;;;;;;3.00;0.55;;;16.90;83.10;;;;;;5049555;28;20026;-74
2022/11/17 07:35:51;;;;;;;2.17;0.70;;;16.90;83.00;;;;;;5041899;28;20087;-74
2022/11/17 07:38:17;;;;;;;2.40;0.40;;;16.90;83.00;;;;;;5015933;28;20022;-74
2022/11/17 07:40:43;;;;;;;3.70;0.60;;;16.90;83.00;;;;;;5032602;28;20021;-74
2022/11/17 07:43:08;;;;;;;2.70;0.57;;;16.80;82.80;;;;;;5033727;28;20052;-74
2022/11/17 07:45:35;;;;;;;1.95;0.60;;;16.80;82.80;;;;;;5032491;28;20087;-74
2022/11/17 07:48:01;;;;;;;2.28;0.68;;;16.80;82.80;;;;;;5032389;28;20037;-74
2022/11/17 07:50:27;;;;;;;4.88;0.63;;;16.80;83.60;;;;;;5032341;28;20109;-72
2022/11/17 07:52:54;;;;;;;6.03;0.80;;;16.80;82.70;;;;;;5033350;28;20459;-72
2022/11/17 07:55:19;;;;;;;9.43;0.98;;;16.80;82.50;;;;;;5033283;28;20100;-72
2022/11/17 07:57:45;;;;;;;5.32;1.35;;;16.80;82.60;;;;;;5029421;28;20071;-72
2022/11/17 08:00:12;;;;;;;5.10;0.90;;;16.80;82.50;;;;;;5042428;28;20100;-72
2022/11/17 08:02:38;;;;;;;3.97;0.85;;;16.80;82.50;;;;;;5051570;28;20493;-72
2022/11/17 08:05:04;;;;;;;2.67;0.70;;;16.80;82.50;;;;;;5051376;28;20108;-72
2022/11/17 08:07:30;;;;;;;2.00;0.60;;;16.80;82.40;;;;;;5051818;28;20097;-72
2022/11/17 08:09:55;;;;;;;4.00;1.00;;;16.80;82.50;;;;;;5033944;28;20098;-72
2022/11/17 08:12:22;;;;;;;5.82;0.70;;;16.80;82.40;;;;;;5050984;28;20032;-72
2022/11/17 08:14:48;;;;;;;2.20;0.65;;;16.80;82.50;;;;;;5051306;28;20025;-72
2022/11/17 08:17:14;;;;;;;2.05;0.50;;;16.80;82.40;;;;;;5052470;28;20487;-72
2022/11/17 08:19:40;;;;;;;5.32;1.00;;;16.80;82.30;;;;;;5006002;28;20056;-72
2022/11/17 08:22:05;;;;;;;2.15;0.90;;;16.80;82.40;;;;;;5049846;28;20480;-72
2022/11/17 08:24:31;;;;;;;3.28;0.68;;;16.80;82.50;;;;;;5030499;28;20029;-72
2022/11/17 08:26:56;;;;;;;5.22;0.85;;;16.80;82.40;;;;;;5036297;28;20025;-72
2022/11/17 08:29:23;;;;;;;5.15;0.93;;;16.80;82.40;;;;;;5052221;28;20484;-72
2022/11/17 08:31:49;;;;;;;2.92;0.95;;;16.80;82.50;;;;;;5052371;28;20028;-72
2022/11/17 08:34:14;;;;;;;3.55;0.85;;;16.80;82.50;;;;;;5051141;28;20025;-72
2022/11/17 08:36:40;;;;;;;2.70;0.73;;;16.70;82.20;;;;;;5036587;28;20029;-72
2022/11/17 08:39:06;;;;;;;2.40;0.80;;;16.80;82.30;;;;;;5032162;28;20030;-72
2022/11/17 08:41:31;;;;;;;4.28;0.90;;;16.80;82.20;;;;;;5032137;28;20467;-72
2022/11/17 08:43:57;;;;;;;3.17;1.02;;;16.70;82.20;;;;;;5031161;28;20018;-72
2022/11/17 08:46:24;;;;;;;6.30;0.95;;;16.80;82.20;;;;;;5031037;28;20498;-72
2022/11/17 08:48:50;;;;;;;2.33;0.68;;;16.80;82.20;;;;;;5031135;28;20021;-72
2022/11/17 08:51:15;;;;;;;4.10;1.00;;;16.70;82.10;;;;;;5030989;28;20036;-72
2022/11/17 08:53:41;;;;;;;5.05;0.95;;;16.70;83.10;;;;;;5047120;28;20029;-72
2022/11/17 08:56:08;;;;;;;1.90;0.70;;;16.70;82.10;;;;;;5050547;28;20516;-72
2022/11/17 08:58:41;;;;;;;2.50;0.55;;;16.70;82.10;;;;;;5051849;28;20052;-72
2022/11/17 09:01:10;;;;;;;4.57;0.80;;;16.70;82.10;;;;;;5050776;28;20055;-72
2022/11/17 09:03:36;;;;;;;3.63;0.85;;;16.70;82.10;;;;;;5051885;28;20087;-72
2022/11/17 09:06:03;;;;;;;2.50;0.75;;;16.70;82.10;;;;;;5034336;28;20487;-72
2022/11/17 09:08:30;;;;;;;7.35;0.70;;;16.70;82.10;;;;;;5050859;28;20072;-72
2022/11/17 09:10:55;;;;;;;2.22;0.77;;;16.70;82.10;;;;;;5051744;28;20021;-72
2022/11/17 09:13:21;;;;;;;6.32;1.10;;;16.70;82.10;;;;;;5051944;28;20479;-72
2022/11/17 09:15:47;;;;;;;2.42;0.50;;;16.70;82.00;;;;;;5036673;28;20025;-72
2022/11/17 09:18:12;;;;;;;3.35;0.57;;;16.70;82.10;;;;;;5055714;28;20028;-72
2022/11/17 09:20:38;;;;;;;3.20;0.70;;;16.70;82.00;;;;;;5039052;28;20116;-72
2022/11/17 09:23:04;;;;;;;3.15;0.60;;;16.70;82.00;;;;;;5034337;28;20059;-72
2022/11/17 09:25:30;;;;;;;1.80;0.63;;;16.60;81.90;;;;;;5034313;28;20017;-72
2022/11/17 09:27:55;;;;;;;2.95;0.60;;;16.70;82.00;;;;;;5050595;28;20040;-72
2022/11/17 09:30:22;;;;;;;1.48;0.73;;;16.70;82.00;;;;;;5054354;28;20025;-72
2022/11/17 09:32:50;;;;;;;4.78;0.90;;;16.70;82.00;;;;;;5037786;28;20032;-72
2022/11/17 09:35:16;;;;;;;3.22;0.98;;;16.70;82.00;;;;;;5054139;28;20029;-72
2022/11/17 09:37:42;;;;;;;2.63;0.50;;;16.70;82.00;;;;;;5037626;28;20405;-72
2022/11/17 09:40:18;;;;;;;2.83;0.70;;;16.70;81.90;;;;;;5055045;28;20028;-72
2022/11/17 09:42:43;;;;;;;2.45;0.70;;;16.70;82.00;;;;;;5054206;28;20479;-72
2022/11/17 09:45:24;;;;;;;1.52;0.80;;;16.70;81.90;;;;;;5037513;28;20066;-72
2022/11/17 09:47:52;;;;;;;2.90;1.00;;;16.60;81.90;;;;;;5054238;28;20071;-72
2022/11/17 09:50:33;;;;;;;1.77;0.60;;;16.60;81.90;;;;;;5053744;28;20021;-72
2022/11/17 09:53:04;;;;;;;1.42;0.63;;;16.60;81.80;;;;;;5039031;28;20024;-72
2022/11/17 09:55:40;;;;;;;3.60;0.82;;;16.60;81.90;;;;;;5053850;28;20029;-72
2022/11/17 09:58:29;;;;;;;2.72;0.98;;;16.60;81.90;;;;;;5037479;28;20542;-72
2022/11/17 10:00:54;;;;;;;4.45;0.77;;;16.60;81.80;;;;;;5053712;28;20505;-72
2022/11/17 10:03:21;;;;;;;2.65;0.95;;;16.60;81.80;;;;;;5053646;28;20025;-72
2022/11/17 10:05:47;;;;;;;1.48;0.57;;;16.60;81.80;;;;;;5053702;28;20112;-72
2022/11/17 10:08:19;;;;;;;4.43;1.05;;;16.60;81.80;;;;;;5036792;28;20104;-72
2022/11/17 10:10:49;;;;;;;1.33;0.43;;;16.60;81.80;;;;;;5053682;28;20063;-72
2022/11/17 10:13:24;;;;;;;2.63;0.70;;;16.60;81.70;;;;;;5053480;28;20052;-72
2022/11/17 10:16:11;;;;;;;1.42;0.55;;;16.60;81.70;;;;;;5054719;28;20155;-72
2022/11/17 10:18:37;;;;;;;2.03;0.80;;;16.60;81.80;;;;;;5037210;28;20522;-72
2022/11/17 10:21:04;;;;;;;2.92;0.65;;;16.60;81.70;;;;;;5017940;28;20472;-72
2022/11/17 10:23:43;;;;;;;1.88;0.57;;;16.60;81.70;;;;;;5034645;28;20044;-72
2022/11/17 10:26:11;;;;;;;0.98;0.43;;;16.60;81.70;;;;;;5033292;28;20029;-72
2022/11/17 10:28:36;;;;;;;2.30;0.60;;;16.60;81.70;;;;;;5053450;28;20033;-72
2022/11/17 10:31:04;;;;;;;1.98;0.47;;;16.60;81.70;;;;;;5053181;28;20033;-72
2022/11/17 10:33:35;;;;;;;2.42;0.70;;;16.60;81.70;;;;;;5053446;28;20021;-72
2022/11/17 10:36:01;;;;;;;4.03;0.80;;;16.60;81.60;;;;;;5052835;28;20123;-72
2022/11/17 10:38:28;;;;;;;3.42;1.00;;;16.60;81.60;;;;;;5036572;28;20099;-72
2022/11/17 10:40:53;;;;;;;4.30;0.75;;;16.60;81.60;;;;;;5054883;28;20090;-72
2022/11/17 10:43:22;;;;;;;2.20;0.70;;;16.60;81.60;;;;;;5036218;28;20483;-72
2022/11/17 10:45:55;;;;;;;1.98;0.43;;;16.60;81.60;;;;;;5054235;28;20037;-72
2022/11/17 10:48:28;;;;;;;1.90;0.70;;;16.50;81.50;;;;;;5036991;28;20510;-72
2022/11/17 10:50:54;;;;;;;;;;;16.60;81.60;;;;;;5054068;28;20025;-72
2022/11/17 10:53:31;;;;;;;1.73;0.50;;;16.60;81.60;;;;;;5054093;28;19904;-72
2022/11/17 10:56:01;;;;;;;2.28;0.55;;;16.50;81.50;;;;;;5037712;28;20066;-72
2022/11/17 10:58:28;;;;;;;4.07;0.55;;;16.50;81.50;;;;;;5036154;28;20048;-72
2022/11/17 11:00:58;;;;;;;1.85;0.50;;;16.60;81.50;;;;;;5052695;28;20443;-72
2022/11/17 11:03:27;;;;;;;2.15;0.70;;;16.60;81.60;;;;;;5036487;28;20020;-72
2022/11/17 11:06:01;;;;;;;1.20;0.70;;;16.50;81.40;;;;;;5036148;28;20024;-72
2022/11/17 11:09:15;;;;;;;2.10;0.70;;;16.50;81.50;;;;;;5036583;28;20037;-72
2022/11/17 11:11:47;;;;;;;1.98;0.70;;;16.50;81.40;;;;;;5034852;28;20033;-72
2022/11/17 11:14:23;;;;;;;2.90;0.70;;;16.60;81.50;;;;;;5051402;28;20029;-72
2022/11/17 11:16:49;;;;;;;1.33;0.55;;;16.60;81.50;;;;;;5034899;28;20064;-72
2022/11/17 11:19:16;;;;;;;3.05;0.82;;;16.50;81.40;;;;;;5030582;28;20026;-72
2022/11/17 11:22:00;;;;;;;1.35;0.50;;;16.50;81.30;;;;;;5014717;28;20041;-72
2022/11/17 11:24:40;;;;;;;2.60;0.75;;;16.50;81.50;;;;;;5014769;28;20449;-72
2022/11/17 11:27:47;;;;;;;0.60;0.57;;;16.50;81.30;;;;;;5025063;28;20039;-72
2022/11/17 11:30:16;;;;;;;2.50;0.65;;;16.50;81.40;;;;;;4952970;29;20150;-72
2022/11/17 11:33:02;;;;;;;2.60;0.68;;;16.50;81.40;;;;;;4937438;29;20035;-72
2022/11/17 11:35:37;;;;;;;2.10;0.60;;;16.50;81.40;;;;;;4952751;29;20118;-72
2022/11/17 11:38:05;;;;;;;4.35;0.55;;;16.50;81.40;;;;;;4952756;28;20035;-72
2022/11/17 11:40:34;;;;;;;3.20;0.70;;;16.50;81.50;;;;;;4953112;29;20075;-72
2022/11/17 11:43:23;;;;;;;2.10;0.70;;;16.50;81.40;;;;;;4937505;29;20066;-72
2022/11/17 11:45:50;;;;;;;2.65;0.60;;;16.50;81.50;;;;;;4937076;29;20031;-72
2022/11/17 11:48:42;;;;;;;2.55;0.82;;;16.50;81.40;;;;;;4936803;29;20511;-72
2022/11/17 11:51:14;;;;;;;1.25;0.50;;;16.50;81.40;;;;;;4951618;29;20252;-72
2022/11/17 11:53:45;;;;;;;1.98;0.65;;;16.50;81.40;;;;;;4936893;29;20514;-72
2022/11/17 11:56:33;;;;;;;1.95;0.30;;;16.50;81.40;;;;;;4936724;29;20540;-72
2022/11/17 11:59:01;;;;;;;1.52;0.55;;;16.50;81.40;;;;;;4936733;29;20094;-72
2022/11/17 12:01:30;;;;;;;3.67;0.80;;;16.50;81.40;;;;;;4936445;29;20041;-72
2022/11/17 12:04:24;;;;;;;1.85;0.60;;;16.50;81.40;;;;;;4936984;29;20027;-72
2022/11/17 12:07:06;;;;;;;2.58;0.68;;;16.50;81.30;;;;;;4964183;28;20532;-72
2022/11/17 12:10:06;;;;;;;2.35;0.50;;;16.50;81.40;;;;;;4976219;28;20112;-72
2022/11/17 12:12:36;;;;;;;1.77;0.63;;;16.50;81.30;;;;;;4989063;28;20038;-72
2022/11/17 12:15:17;;;;;;;1.27;0.63;;;16.50;81.30;;;;;;4974910;28;20109;-72
2022/11/17 12:17:51;;;;;;;3.15;0.60;;;16.50;81.20;;;;;;4990551;28;20416;-72
2022/11/17 12:20:35;;;;;;;2.50;0.77;;;16.50;81.20;;;;;;4990922;28;20037;-72
2022/11/17 12:23:21;;;;;;;3.15;0.60;;;16.50;81.20;;;;;;4991174;28;20034;-72
2022/11/17 12:25:48;;;;;;;1.77;0.38;;;16.50;81.20;;;;;;4975062;28;20076;-72
2022/11/17 12:28:34;;;;;;;1.75;0.80;;;16.50;82.20;;;;;;4992895;28;20065;-72
2022/11/17 12:31:09;;;;;;;1.75;0.43;;;16.50;81.20;;;;;;5010543;28;20042;-72
2022/11/17 12:33:53;;;;;;;1.83;0.43;;;16.50;81.30;;;;;;4994959;28;20062;-72
2022/11/17 12:36:25;;;;;;;1.67;0.52;;;16.50;81.10;;;;;;5010345;28;20049;-72
2022/11/17 12:38:51;;;;;;;2.80;0.77;;;16.50;81.20;;;;;;5010635;28;20030;-72
2022/11/17 12:41:52;;;;;;;2.05;0.80;;;16.50;81.10;;;;;;4993818;28;20077;-72
2022/11/17 12:44:36;;;;;;;2.25;0.73;;;16.50;81.10;;;;;;4967162;28;20117;-72
2022/11/17 12:47:26;;;;;;;0.95;0.60;;;16.50;81.10;;;;;;4971250;28;20113;-72
2022/11/17 12:50:29;;;;;;;1.05;0.60;;;16.50;81.10;;;;;;4972677;28;20058;-72
2022/11/17 12:53:22;;;;;;;3.00;0.70;;;16.50;81.10;;;;;;4959170;28;20045;-72
2022/11/17 12:56:29;;;;;;;3.25;0.60;;;16.50;81.20;;;;;;4975387;28;20127;-72
2022/11/17 12:58:59;;;;;;;1.27;0.60;;;16.50;81.00;;;;;;4972271;28;20046;-72
2022/11/17 13:01:48;;;;;;;1.95;0.50;;;16.50;81.00;;;;;;4958890;28;20113;-72
2022/11/17 13:04:18;;;;;;;1.98;0.52;;;16.50;81.00;;;;;;4960900;28;20470;-72
2022/11/17 13:07:00;;;;;;;2.08;0.50;;;16.50;81.10;;;;;;4943521;28;20543;-72
2022/11/17 13:09:27;;;;;;;5.50;0.70;;;16.50;81.10;;;;;;4958953;28;20105;-72
2022/11/17 13:12:00;;;;;;;3.17;0.63;;;16.50;81.00;;;;;;4959087;28;20035;-72
2022/11/17 13:14:25;;;;;;;1.80;0.50;;;16.50;80.80;;;;;;4958905;28;20031;-72
2022/11/17 13:16:51;;;;;;;2.08;0.60;;;16.50;80.80;;;;;;4958592;28;20038;-72
2022/11/17 13:19:40;;;;;;;2.50;0.40;;;16.50;80.90;;;;;;5027999;28;20030;-72
2022/11/17 13:22:12;;;;;;;1.67;0.60;;;16.50;80.80;;;;;;5034729;28;20033;-72
2022/11/17 13:24:38;;;;;;;;;;;16.50;81.00;;;;;;5036332;28;20026;-72
2022/11/17 13:27:06;;;;;;;2.78;0.50;;;16.50;81.00;;;;;;5044392;28;19912;-72
2022/11/17 13:29:32;;;;;;;3.70;0.50;;;16.50;80.80;;;;;;5054205;28;20055;-72